Welcome to Northern Hawkes Bay. New Zealand.
PWS Header
      nz Flag



Hit Counter


W3C Valid W3C Valid logo


    Wairoa

Select any of the Stations below to visit their websites.










Historic Data from Weather Underground
Select the location of interest below. Wairoa is the default. Please have patience, this Data is slow to load in.
Northern Hawkes Bay Historical Data
Daily Summary for June 9, 2017 Units:  English    Metric   Both
« Previous Day
Next Day »
Daily Weekly Monthly Yearly Custom
  High: Low: Average:
Temperature: 60.6 °F 40.1 °F 50 °F
Dew Point: 48.6 °F 39 °F 43.7 °F
Humidity: 97% 56% 80%
Wind Speed: 15.9mph 0mph 5mph
Wind Gust: 22.1mph - -
Wind- - West
Pressure: 30.2 in 30 in -
Precipitation: 0.21 in    
Historical Graphs
 
 
Tabular Data for June 9, 2017
Time Temperature Dew Point Pressure Wind Wind Speed Wind Gust Humidity Rainfall Rate (Hourly) solar
00:01 49.5 °F 48.4 °F 30.2 in SW 11.4 mph 21.3 mph 96% 0.05 in 0 W/m2
00:06 49.5 °F 48.4 °F 30.2 in SW 11.4 mph 21.3 mph 96% 0.05 in 0 W/m2
00:11 49.5 °F 48.4 °F 30.2 in SW 4.5 mph 19 mph 96% 0.05 in 0 W/m2
00:16 49.5 °F 48.4 °F 30.2 in SW 12.1 mph 18.3 mph 96% 0.05 in 0 W/m2
00:21 49.5 °F 48.4 °F 30.2 in SW 12.1 mph 22.1 mph 96% 0.05 in 0 W/m2
00:26 49.3 °F 48.2 °F 30.2 in SW 10.7 mph 22.1 mph 96% 0.07 in 0 W/m2
00:45 49.1 °F 48.4 °F 30.2 in SSW 10.7 mph 16.8 mph 97% 0.14 in 0 W/m2
00:50 49.1 °F 48.4 °F 30.2 in SSW 9.8 mph 17.4 mph 97% 0.13 in 0 W/m2
00:56 49.1 °F 48.4 °F 30.2 in SSW 10.7 mph 17.4 mph 97% 0.14 in 0 W/m2
01:01 49.3 °F 48.6 °F 30.2 in SW 14.5 mph 19 mph 97% 0.14 in 0 W/m2
01:19 48.7 °F 47.8 °F 30.2 in SW 6 mph 12.1 mph 97% 0.15 in 0 W/m2
01:24 49.1 °F 48.4 °F 30.2 in WSW 13.6 mph 19.7 mph 97% 0.13 in 0 W/m2
01:29 49.1 °F 48.4 °F 30.2 in WSW 8.3 mph 19.7 mph 97% 0.11 in 0 W/m2
01:34 49.1 °F 48 °F 30.2 in WSW 9.8 mph 19.7 mph 96% 0.09 in 0 W/m2
01:39 49.1 °F 47.7 °F 30.2 in WSW 15.9 mph 21.3 mph 95% 0.09 in 0 W/m2
01:44 49.1 °F 47.7 °F 30.2 in WSW 9.2 mph 21.3 mph 95% 0.07 in 0 W/m2
01:49 49.1 °F 47.7 °F 30.2 in WSW 4.5 mph 20.6 mph 95% 0.06 in 0 W/m2
01:54 49.1 °F 47.7 °F 30.2 in SW 7.6 mph 16.8 mph 95% 0.05 in 0 W/m2
01:57 49.3 °F 47.8 °F 30.2 in SW 9.8 mph 18.3 mph 95% 0.06 in 0 W/m2
02:02 49.1 °F 47.7 °F 30.2 in SW 11.4 mph 18.3 mph 95% 0.05 in 0 W/m2
02:07 49.3 °F 47.8 °F 30.2 in SW 9.2 mph 16.8 mph 95% 0.04 in 0 W/m2
02:12 49.5 °F 48 °F 30.2 in SW 9.2 mph 16.8 mph 95% 0.02 in 0 W/m2
02:17 50 °F 48 °F 30.2 in SW 9.8 mph 19 mph 93% 0.02 in 0 W/m2
02:22 50.2 °F 47.5 °F 30.2 in WSW 9.8 mph 19 mph 90% 0.02 in 0 W/m2
02:27 50.4 °F 46.6 °F 30.2 in WSW 11.4 mph 18.3 mph 87% 0.02 in 0 W/m2
02:32 50.5 °F 46.6 °F 30.2 in SW 9.8 mph 18.3 mph 86% 0.02 in 0 W/m2
02:37 50.5 °F 46.6 °F 30.2 in SW 9.2 mph 17.4 mph 86% 0.01 in 0 W/m2
02:42 50.5 °F 46.6 °F 30.2 in SW 6.9 mph 18.3 mph 86% 0.01 in 0 W/m2
02:47 50.4 °F 46.2 °F 30.2 in SW 11.4 mph 18.3 mph 86% 0.02 in 0 W/m2
02:52 50.5 °F 46.6 °F 30.2 in WSW 13.6 mph 16.8 mph 86% 0.02 in 0 W/m2
02:57 50.5 °F 46.6 °F 30.2 in WSW 6 mph 16.8 mph 86% 0.01 in 0 W/m2
03:02 50.5 °F 46.6 °F 30.2 in WSW 6.9 mph 15.9 mph 86% 0.01 in 0 W/m2
03:07 50.5 °F 46.6 °F 30.2 in West 9.2 mph 15.9 mph 86% 0.01 in 0 W/m2
03:12 50.5 °F 46.2 °F 30.2 in West 8.3 mph 16.8 mph 85% 0.01 in 0 W/m2
03:17 50.7 °F 46.4 °F 30.2 in WSW 11.4 mph 16.8 mph 85% 0.01 in 0 W/m2
03:22 50.9 °F 46.6 °F 30.2 in SW 9.8 mph 15.9 mph 85% 0.01 in 0 W/m2
03:27 50.9 °F 46.2 °F 30.2 in SW 13.6 mph 18.3 mph 84% 0.01 in 0 W/m2
03:32 50.9 °F 46.2 °F 30.2 in WSW 8.3 mph 18.3 mph 84% 0.01 in 0 W/m2
03:37 50.9 °F 46.2 °F 30.2 in WSW 9.2 mph 18.3 mph 84% 0.01 in 0 W/m2
03:42 50.9 °F 45.9 °F 30.2 in WSW 9.2 mph 17.4 mph 83% 0.01 in 0 W/m2
03:47 51.1 °F 46 °F 30.2 in SW 9.8 mph 19.7 mph 83% 0 in 0 W/m2
03:52 51.1 °F 46 °F 30.1 in WSW 9.8 mph 19.7 mph 83% 0 in 0 W/m2
03:57 50.9 °F 45.9 °F 30.1 in WSW 9.2 mph 18.3 mph 83% 0 in 0 W/m2
04:02 50.9 °F 45.9 °F 30.2 in SW 10.7 mph 18.3 mph 83% 0 in 0 W/m2
04:07 50.7 °F 45.9 °F 30.2 in SW 7.6 mph 18.3 mph 83% 0 in 0 W/m2
04:12 50.4 °F 45.3 °F 30.2 in WSW 8.3 mph 16.8 mph 83% 0 in 0 W/m2
04:17 50.2 °F 45.1 °F 30.2 in WSW 6.9 mph 12.1 mph 83% 0 in 0 W/m2
04:22 50.2 °F 45.1 °F 30.2 in SW 6.9 mph 12.1 mph 83% 0 in 0 W/m2
04:27 50.2 °F 45.1 °F 30.2 in WSW 4.5 mph 10.7 mph 83% 0 in 0 W/m2
04:32 50 °F 45 °F 30.2 in WSW 3.8 mph 11.4 mph 83% 0 in 0 W/m2
04:37 50 °F 45 °F 30.1 in WSW 6 mph 11.4 mph 83% 0 in 0 W/m2
04:42 50 °F 45 °F 30.2 in WSW 6.9 mph 11.4 mph 83% 0 in 0 W/m2
04:47 50 °F 45 °F 30.2 in WSW 5.4 mph 10.7 mph 83% 0 in 0 W/m2
04:52 50 °F 45 °F 30.2 in West 6 mph 10.7 mph 83% 0 in 0 W/m2
04:57 50.2 °F 45.1 °F 30.2 in West 8.3 mph 12.1 mph 83% 0 in 0 W/m2
05:02 50.4 °F 45.3 °F 30.2 in WSW 9.8 mph 14.5 mph 83% 0 in 0 W/m2
05:07 50.7 °F 45.3 °F 30.2 in WSW 12.1 mph 17.4 mph 82% 0 in 0 W/m2
05:12 50.9 °F 45.3 °F 30.2 in SW 11.4 mph 17.4 mph 81% 0 in 0 W/m2
05:17 51.1 °F 45.5 °F 30.2 in SW 9.8 mph 15.9 mph 81% 0 in 0 W/m2
05:22 51.1 °F 45.1 °F 30.2 in SW 13.6 mph 17.4 mph 80% 0 in 0 W/m2
05:27 51.1 °F 45.1 °F 30.2 in SW 7.6 mph 17.4 mph 80% 0 in 0 W/m2
05:32 50.9 °F 45.3 °F 30.2 in WSW 6.9 mph 17.4 mph 81% 0 in 0 W/m2
05:37 50.9 °F 45.7 °F 30.2 in WSW 9.2 mph 15.2 mph 82% 0 in 0 W/m2
05:42 50.9 °F 45.7 °F 30.2 in SW 6 mph 16.8 mph 82% 0 in 0 W/m2
05:47 50.9 °F 45.7 °F 30.2 in SW 7.6 mph 16.8 mph 82% 0 in 0 W/m2
05:52 50.9 °F 45.7 °F 30.2 in SW 9.2 mph 13 mph 82% 0 in 0 W/m2
05:57 50.9 °F 45.7 °F 30.2 in SW 4.5 mph 13.6 mph 82% 0 in 0 W/m2
06:07 50.4 °F 45.1 °F 30.2 in WSW 4.5 mph 8.3 mph 82% 0 in 0 W/m2
06:12 50.4 °F 45.1 °F 30.2 in West 5.4 mph 10.7 mph 82% 0 in 0 W/m2
06:17 50.2 °F 44.6 °F 30.2 in West 4.5 mph 10.7 mph 81% 0 in 0 W/m2
06:22 50.2 °F 44.6 °F 30.2 in West 3.1 mph 10.7 mph 81% 0 in 0 W/m2
06:27 50 °F 44.4 °F 30.2 in West 5.4 mph 10.7 mph 81% 0 in 0 W/m2
06:32 50 °F 44.4 °F 30.2 in West 3.8 mph 9.8 mph 81% 0 in 0 W/m2
06:37 50.2 °F 44.2 °F 30.2 in West 3.8 mph 9.8 mph 80% 0 in 0 W/m2
06:57 50.2 °F 44.2 °F 30.2 in WSW 3.1 mph 13.6 mph 80% 0 in 0 W/m2
07:02 50.2 °F 44.2 °F 30.2 in WSW 9.2 mph 13.6 mph 80% 0 in 0 W/m2
07:07 50.4 °F 44.1 °F 30.2 in WSW 7.6 mph 13.6 mph 79% 0 in 0 W/m2
07:12 50.2 °F 43.9 °F 30.2 in WSW 8.3 mph 13.6 mph 79% 0 in 0 W/m2
07:17 50 °F 43.9 °F 30.2 in WSW 3.1 mph 13 mph 79% 0 in 0 W/m2
07:22 50 °F 44.1 °F 30.2 in WSW 3.1 mph 10.7 mph 80% 0 in 0 W/m2
07:27 49.8 °F 44.2 °F 30.2 in WSW 3.8 mph 9.8 mph 81% 0 in 2 W/m2
07:32 49.6 °F 44.1 °F 30.2 in WSW 4.5 mph 9.2 mph 81% 0 in 4 W/m2
07:37 49.6 °F 44.1 °F 30.2 in West 3.8 mph 9.8 mph 81% 0 in 6 W/m2
07:42 49.6 °F 44.1 °F 30.2 in West 6.9 mph 9.8 mph 81% 0 in 7 W/m2
07:47 49.6 °F 44.1 °F 30.2 in WSW 3.8 mph 9.8 mph 81% 0 in 12 W/m2
07:52 49.6 °F 44.1 °F 30.2 in WSW 3.1 mph 9.8 mph 81% 0 in 13 W/m2
07:57 49.6 °F 44.1 °F 30.2 in WNW 1.6 mph 8.3 mph 81% 0 in 12 W/m2
08:02 49.6 °F 44.1 °F 30.2 in WNW 2.2 mph 6 mph 81% 0 in 14 W/m2
08:07 48.6 °F 42.6 °F 30.2 in WNW 2.2 mph 6 mph 80% 0 in 18 W/m2
08:12 48 °F 42.4 °F 30.2 in NW 2.2 mph 5.4 mph 81% 0 in 23 W/m2
08:17 47.8 °F 42.6 °F 30.2 in NW 1.6 mph 5.4 mph 82% 0 in 23 W/m2
08:22 48.2 °F 43 °F 30.2 in NW 1.6 mph 3.1 mph 82% 0 in 27 W/m2
08:27 48.7 °F 43.9 °F 30.2 in WNW 1.6 mph 7.6 mph 83% 0 in 33 W/m2
08:32 49.6 °F 44.4 °F 30.2 in West 3.8 mph 7.6 mph 82% 0 in 31 W/m2
08:37 50 °F 44.1 °F 30.2 in West 3.8 mph 8.3 mph 80% 0 in 38 W/m2
08:42 49.1 °F 43 °F 30.2 in WNW 3.1 mph 8.3 mph 79% 0 in 54 W/m2
08:47 48.6 °F 42.6 °F 30.2 in NNW 0.7 mph 5.4 mph 80% 0 in 62 W/m2
08:52 48.4 °F 42.8 °F 30.2 in NNW 1.6 mph 5.4 mph 81% 0 in 53 W/m2
08:57 48.4 °F 42.8 °F 30.2 in NW 3.1 mph 4.5 mph 81% 0 in 67 W/m2
08:58 48.4 °F 42.8 °F 30.2 in NW 1.6 mph 4.5 mph 81% 0 in 70 W/m2
09:03 48.7 °F 43.5 °F 30.2 in NW 0.7 mph 4.5 mph 82% 0 in 79 W/m2
09:08 49.3 °F 44.1 °F 30.2 in NNW 2.2 mph 4.5 mph 82% 0 in 139 W/m2
09:13 49.8 °F 44.2 °F 30.2 in NW 3.1 mph 6 mph 81% 0 in 89 W/m2
09:18 49.8 °F 44.2 °F 30.2 in NNW 1.6 mph 6 mph 81% 0 in 91 W/m2
09:23 50 °F 43.9 °F 30.2 in NNW 1.6 mph 4.5 mph 79% 0 in 84 W/m2
09:28 50 °F 43.9 °F 30.2 in NNW 1.6 mph 5.4 mph 79% 0 in 83 W/m2
09:33 50.2 °F 43.9 °F 30.2 in NW 2.2 mph 5.4 mph 79% 0 in 87 W/m2
09:38 50.5 °F 44.2 °F 30.2 in NW 3.1 mph 4.5 mph 79% 0 in 117 W/m2
09:43 51.4 °F 45.1 °F 30.2 in WNW 3.1 mph 6 mph 79% 0 in 129 W/m2
09:48 52.3 °F 45.3 °F 30.2 in WNW 5.4 mph 6.9 mph 77% 0 in 134 W/m2
09:53 53.2 °F 45.5 °F 30.2 in West 3.1 mph 6.9 mph 75% 0 in 119 W/m2
09:58 53.6 °F 44.8 °F 30.2 in WSW 6.9 mph 9.8 mph 72% 0 in 112 W/m2
10:03 53.6 °F 44.4 °F 30.2 in WSW 3.1 mph 9.8 mph 71% 0 in 105 W/m2
10:08 53.8 °F 44.6 °F 30.2 in West 3.1 mph 9.8 mph 71% 0 in 108 W/m2
10:13 54 °F 44.8 °F 30.2 in West 4.5 mph 7.6 mph 71% 0 in 115 W/m2
10:18 54.1 °F 45 °F 30.2 in West 1.6 mph 7.6 mph 71% 0 in 107 W/m2
10:23 54.3 °F 44.8 °F 30.2 in WSW 2.2 mph 6 mph 70% 0 in 117 W/m2
10:28 54.5 °F 44.2 °F 30.2 in SW 6.9 mph 9.2 mph 68% 0 in 131 W/m2
10:33 54 °F 44.1 °F 30.2 in SW 4.5 mph 9.2 mph 69% 0 in 130 W/m2
10:38 53.6 °F 43.7 °F 30.2 in WSW 3.1 mph 9.2 mph 69% 0 in 102 W/m2
10:43 53.1 °F 43.5 °F 30.2 in WSW 0.7 mph 6 mph 70% 0 in 100 W/m2
11:03 54.7 °F 43.5 °F 30.2 in WSW 6 mph 9.8 mph 66% 0 in 100 W/m2
11:08 54 °F 43.5 °F 30.2 in WSW 4.5 mph 10.7 mph 68% 0 in 83 W/m2
11:13 54 °F 43.5 °F 30.2 in WSW 7.6 mph 10.7 mph 68% 0 in 91 W/m2
11:18 54.7 °F 44.2 °F 30.2 in SW 9.2 mph 11.4 mph 68% 0 in 106 W/m2
11:23 54.5 °F 43.3 °F 30.2 in SW 7.6 mph 17.4 mph 66% 0 in 101 W/m2
11:28 55 °F 44.2 °F 30.2 in WSW 10.7 mph 17.4 mph 67% 0 in 85 W/m2
11:52 55.8 °F 43.3 °F 30.2 in SW 7.6 mph 12.1 mph 63% 0 in 77 W/m2
11:57 55.9 °F 44.4 °F 30.2 in WSW 2.2 mph 11.4 mph 65% 0 in 76 W/m2
12:02 55.8 °F 43.3 °F 30.2 in SW 3.8 mph 11.4 mph 63% 0 in 77 W/m2
12:07 55.9 °F 43.5 °F 30.2 in WSW 6 mph 11.4 mph 63% 0 in 72 W/m2
12:12 55.9 °F 42.6 °F 30.2 in West 5.4 mph 15.2 mph 61% 0 in 66 W/m2
12:17 56.3 °F 43.9 °F 30.2 in WSW 3.8 mph 15.2 mph 63% 0 in 63 W/m2
12:22 56.7 °F 43.9 °F 30.2 in SW 6 mph 12.1 mph 62% 0 in 63 W/m2
12:27 56.7 °F 43.9 °F 30.2 in SW 5.4 mph 12.1 mph 62% 0 in 61 W/m2
12:32 57.2 °F 43.9 °F 30.2 in West 6 mph 12.1 mph 61% 0 in 60 W/m2
12:37 56.8 °F 44.1 °F 30.2 in WSW 7.6 mph 12.1 mph 62% 0 in 59 W/m2
12:42 57 °F 44.6 °F 30.2 in WSW 8.3 mph 12.1 mph 63% 0 in 58 W/m2
12:47 57.2 °F 44.2 °F 30.2 in WSW 7.6 mph 11.4 mph 62% 0 in 59 W/m2
12:52 57 °F 44.6 °F 30.2 in WSW 7.6 mph 14.5 mph 63% 0 in 59 W/m2
12:57 56.5 °F 44.1 °F 30.2 in SW 9.8 mph 15.2 mph 63% 0 in 60 W/m2
13:02 56.5 °F 44.4 °F 30.2 in SW 6 mph 15.2 mph 64% 0 in 61 W/m2
13:07 56.3 °F 44.2 °F 30.2 in WSW 5.4 mph 13 mph 64% 0 in 68 W/m2
13:12 57.4 °F 45.3 °F 30.2 in WSW 4.5 mph 12.1 mph 64% 0 in 75 W/m2
13:17 58.3 °F 45.3 °F 30.2 in WSW 3.8 mph 9.2 mph 62% 0 in 77 W/m2
13:22 57.7 °F 43.5 °F 30.2 in WSW 5.4 mph 9.8 mph 59% 0 in 80 W/m2
13:27 56.7 °F 43.3 °F 30.1 in SW 6 mph 9.8 mph 61% 0 in 85 W/m2
13:32 57 °F 44.1 °F 30.2 in WSW 5.4 mph 9.8 mph 62% 0 in 84 W/m2
13:37 57.9 °F 44.6 °F 30.2 in WSW 6.9 mph 9.8 mph 61% 0 in 85 W/m2
13:42 56.8 °F 43.2 °F 30.1 in SW 5.4 mph 10.7 mph 60% 0 in 89 W/m2
13:47 55.8 °F 43 °F 30.2 in WSW 3.8 mph 10.7 mph 62% 0 in 74 W/m2
13:52 55.4 °F 43.3 °F 30.1 in WSW 6.9 mph 9.8 mph 64% 0 in 85 W/m2
13:57 56.3 °F 43.9 °F 30.1 in SW 2.2 mph 9.8 mph 63% 0 in 106 W/m2
14:02 57.6 °F 43.9 °F 30.1 in WSW 8.3 mph 9.8 mph 60% 0 in 156 W/m2
14:07 57.2 °F 43.5 °F 30.1 in SW 5.4 mph 9.8 mph 60% 0 in 206 W/m2
14:12 57.6 °F 43.3 °F 30.1 in SW 4.5 mph 9.8 mph 59% 0 in 262 W/m2
14:17 58.3 °F 44.1 °F 30.1 in SW 6.9 mph 9.2 mph 59% 0 in 273 W/m2
14:22 58.3 °F 44.1 °F 30.1 in WSW 4.5 mph 8.3 mph 59% 0 in 270 W/m2
14:27 58.1 °F 43.9 °F 30.1 in WSW 5.4 mph 8.3 mph 59% 0 in 266 W/m2
14:32 57.7 °F 42.6 °F 30.1 in WSW 3.8 mph 9.8 mph 57% 0 in 260 W/m2
14:37 57.7 °F 43.2 °F 30.1 in WSW 2.2 mph 9.8 mph 58% 0 in 255 W/m2
14:42 58.6 °F 43.5 °F 30.1 in WSW 3.8 mph 9.2 mph 57% 0 in 248 W/m2
14:47 58.5 °F 43.3 °F 30.1 in WSW 3.8 mph 8.3 mph 57% 0 in 240 W/m2
14:53 58.8 °F 43.5 °F 30.1 in West 3.1 mph 8.3 mph 57% 0 in 230 W/m2
14:58 58.8 °F 43.5 °F 30.1 in WSW 3.1 mph 6.9 mph 57% 0 in 219 W/m2
15:03 58.8 °F 43.5 °F 30.1 in WSW 2.2 mph 6 mph 57% 0 in 211 W/m2
15:08 58.8 °F 43.5 °F 30.1 in SW 4.5 mph 7.6 mph 57% 0 in 201 W/m2
15:13 58.3 °F 43.5 °F 30.1 in SW 3.8 mph 7.6 mph 58% 0 in 192 W/m2
15:18 58.1 °F 43.3 °F 30.1 in SW 4.5 mph 7.6 mph 58% 0 in 182 W/m2
15:23 58.5 °F 43.7 °F 30.1 in SSW 4.5 mph 8.3 mph 58% 0 in 173 W/m2
15:28 58.6 °F 43.9 °F 30.1 in SSW 3.1 mph 8.3 mph 58% 0 in 160 W/m2
15:33 58.5 °F 43.7 °F 30.1 in SSW 3.1 mph 6.9 mph 58% 0 in 147 W/m2
15:38 59 °F 43.3 °F 30.1 in SW 3.1 mph 6.9 mph 56% 0 in 133 W/m2
15:43 59.4 °F 44.1 °F 30.1 in SSW 3.8 mph 6 mph 57% 0 in 119 W/m2
15:48 59.2 °F 44.4 °F 30.1 in SW 3.1 mph 6.9 mph 58% 0 in 105 W/m2
15:53 59.4 °F 44.1 °F 30.1 in SSW 1.6 mph 6.9 mph 57% 0 in 93 W/m2
15:58 59.9 °F 44.6 °F 30.1 in SSW 1.6 mph 6 mph 57% 0 in 82 W/m2
16:03 60.1 °F 44.8 °F 30.1 in SSW 1.6 mph 4.5 mph 57% 0 in 70 W/m2
16:08 60.6 °F 45 °F 30.1 in SSW 0.7 mph 4.5 mph 56% 0 in 58 W/m2
16:13 60.3 °F 44.4 °F 30.1 in SW 1.6 mph 3.1 mph 56% 0 in 48 W/m2
16:33 60.3 °F 44.4 °F 30.1 in Calm   2.2 mph 56% 0 in 20 W/m2
16:38 60.3 °F 45 °F 30.1 in Calm   2.2 mph 57% 0 in 15 W/m2
16:43 60.3 °F 44.4 °F 30.1 in Calm   0.7 mph 56% 0 in 12 W/m2
16:48 58.1 °F 43.3 °F 30.1 in Calm   0.7 mph 58% 0 in 6 W/m2
16:53 55.6 °F 41.9 °F 30.1 in Calm   0.7 mph 60% 0 in 3 W/m2
16:58 54 °F 41.7 °F 30.1 in Calm   1.6 mph 63% 0 in 1 W/m2
17:03 52.3 °F 40.8 °F 30.1 in Calm   1.6 mph 65% 0 in 0 W/m2
17:08 51.3 °F 41.4 °F 30.1 in North 0.7 mph 1.6 mph 69% 0 in 0 W/m2
17:13 50.4 °F 41.7 °F 30.1 in NW 0.7 mph 1.6 mph 72% 0 in 0 W/m2
17:18 49.8 °F 42.6 °F 30.1 in NNW 0.7 mph 2.2 mph 76% 0 in 0 W/m2
17:23 49.3 °F 42.6 °F 30.1 in North 1.6 mph 2.2 mph 78% 0 in 0 W/m2
17:28 49.1 °F 43.2 °F 30.1 in North 0.7 mph 2.2 mph 80% 0 in 0 W/m2
17:33 48.9 °F 43.3 °F 30.1 in NNW 2.2 mph 3.1 mph 81% 0 in 0 W/m2
17:38 48 °F 43.2 °F 30.1 in NW 2.2 mph 3.8 mph 83% 0 in 0 W/m2
17:43 47.1 °F 42.8 °F 30.1 in NNW 1.6 mph 3.8 mph 85% 0 in 0 W/m2
17:48 46.6 °F 42.3 °F 30.1 in North 1.6 mph 3.8 mph 85% 0 in 0 W/m2
17:53 46.2 °F 42.1 °F 30.1 in NNW 1.6 mph 3.1 mph 85% 0 in 0 W/m2
17:58 46 °F 42.1 °F 30.1 in NNW 1.6 mph 3.1 mph 86% 0 in 0 W/m2
18:03 45.7 °F 41.7 °F 30.1 in NW 1.6 mph 3.1 mph 86% 0 in 0 W/m2
18:08 45.5 °F 41.9 °F 30.1 in NW 1.6 mph 3.1 mph 87% 0 in 0 W/m2
18:13 45.3 °F 41.7 °F 30.1 in NNW 1.6 mph 3.1 mph 87% 0 in 0 W/m2
18:18 45.1 °F 41.5 °F 30.1 in NNW 1.6 mph 3.1 mph 87% 0 in 0 W/m2
18:23 45 °F 41.5 °F 30.1 in NNW 1.6 mph 3.1 mph 88% 0 in 0 W/m2
18:28 44.8 °F 41.4 °F 30.1 in NNW 0.7 mph 3.1 mph 88% 0 in 0 W/m2
18:33 44.6 °F 41.4 °F 30.1 in North 0.7 mph 2.2 mph 88% 0 in 0 W/m2
18:38 44.4 °F 41.7 °F 30.1 in NNW 1.6 mph 3.1 mph 90% 0 in 0 W/m2
18:43 44.4 °F 41.7 °F 30.1 in NNW 2.2 mph 3.1 mph 90% 0 in 0 W/m2
18:49 44.4 °F 42.1 °F 30.1 in NNW 1.6 mph 3.8 mph 91% 0 in 0 W/m2
18:54 44.2 °F 41.7 °F 30.1 in North 1.6 mph 3.8 mph 91% 0 in 0 W/m2
18:59 44.1 °F 41.5 °F 30.1 in NNW 1.6 mph 3.1 mph 91% 0 in 0 W/m2
19:04 43.9 °F 41.4 °F 30.1 in NNW 1.6 mph 3.1 mph 91% 0 in 0 W/m2
19:09 43.7 °F 41.2 °F 30.1 in NNW 3.1 mph 4.5 mph 91% 0 in 0 W/m2
19:14 43.7 °F 41.2 °F 30.1 in NNW 2.2 mph 4.5 mph 91% 0 in 0 W/m2
19:19 43.7 °F 41.5 °F 30.1 in NW 3.1 mph 4.5 mph 92% 0 in 0 W/m2
19:24 43.5 °F 41.4 °F 30.1 in NW 2.2 mph 4.5 mph 92% 0 in 0 W/m2
19:29 43.5 °F 41.4 °F 30.1 in NW 3.1 mph 5.4 mph 92% 0 in 0 W/m2
19:34 43.3 °F 41.2 °F 30.1 in NW 3.1 mph 5.4 mph 92% 0 in 0 W/m2
19:39 43.2 °F 41 °F 30.1 in NW 3.1 mph 4.5 mph 92% 0 in 0 W/m2
19:44 43.2 °F 41 °F 30.1 in NNW 3.1 mph 4.5 mph 92% 0 in 0 W/m2
19:49 43.2 °F 41.4 °F 30.1 in NW 3.1 mph 6 mph 93% 0 in 0 W/m2
19:54 43.2 °F 41.4 °F 30.1 in NW 3.1 mph 6 mph 93% 0 in 0 W/m2
19:59 43.2 °F 41.4 °F 30.1 in NW 3.1 mph 6 mph 93% 0 in 0 W/m2
20:04 43 °F 41.2 °F 30.1 in NW 4.5 mph 6 mph 93% 0 in 0 W/m2
20:09 43 °F 41.2 °F 30.1 in NW 3.8 mph 6.9 mph 93% 0 in 0 W/m2
20:14 42.8 °F 40.8 °F 30.1 in NW 3.8 mph 6.9 mph 93% 0 in 0 W/m2
20:19 42.6 °F 41 °F 30.1 in NNW 2.2 mph 5.4 mph 94% 0 in 0 W/m2
20:24 42.6 °F 41 °F 30.1 in NNW 3.8 mph 6 mph 94% 0 in 0 W/m2
20:29 43 °F 41.4 °F 30.1 in NNW 4.5 mph 6 mph 94% 0 in 0 W/m2
20:34 43.3 °F 41.7 °F 30.1 in NNW 4.5 mph 6.9 mph 94% 0 in 0 W/m2
20:39 43.2 °F 41.5 °F 30.1 in NNW 3.1 mph 7.6 mph 94% 0 in 0 W/m2
20:44 43 °F 41.4 °F 30.1 in NW 3.8 mph 7.6 mph 94% 0 in 0 W/m2
20:49 42.8 °F 41.2 °F 30.1 in NW 3.8 mph 6 mph 94% 0 in 0 W/m2
20:54 42.6 °F 41.4 °F 30.1 in NW 3.8 mph 6 mph 95% 0 in 0 W/m2
20:59 42.4 °F 41.2 °F 30.1 in NW 5.4 mph 8.3 mph 95% 0 in 0 W/m2
21:04 42.8 °F 41.2 °F 30.1 in NNW 3.8 mph 8.3 mph 94% 0 in 0 W/m2
21:09 42.8 °F 41.2 °F 30.1 in North 3.8 mph 8.3 mph 94% 0 in 0 W/m2
21:14 42.8 °F 41.2 °F 30.1 in North 5.4 mph 6 mph 94% 0 in 0 W/m2
21:19 42.8 °F 41.2 °F 30.1 in North 3.8 mph 6 mph 94% 0 in 0 W/m2
21:24 42.8 °F 41.2 °F 30.1 in NNW 3.8 mph 6.9 mph 94% 0 in 0 W/m2
21:29 42.8 °F 41.2 °F 30.1 in NNW 3.8 mph 7.6 mph 94% 0 in 0 W/m2
21:34 42.6 °F 41.4 °F 30.1 in NNW 3.8 mph 7.6 mph 95% 0 in 0 W/m2
21:39 42.4 °F 41.2 °F 30.1 in NNW 3.8 mph 6.9 mph 95% 0 in 0 W/m2
21:44 42.1 °F 40.8 °F 30.1 in NNW 5.4 mph 6.9 mph 95% 0 in 0 W/m2
21:49 41.9 °F 40.3 °F 30.1 in NNW 3.8 mph 6.9 mph 94% 0 in 0 W/m2
21:54 41.7 °F 40.5 °F 30.1 in NW 4.5 mph 7.6 mph 95% 0 in 0 W/m2
21:59 41.9 °F 40.6 °F 30.1 in NW 4.5 mph 9.2 mph 95% 0 in 0 W/m2
22:04 41.9 °F 40.6 °F 30.1 in NNW 3.1 mph 9.2 mph 95% 0 in 0 W/m2
22:09 41.7 °F 40.5 °F 30.1 in NNW 3.8 mph 8.3 mph 95% 0 in 0 W/m2
22:14 41.7 °F 40.5 °F 30.1 in NNW 3.8 mph 6.9 mph 95% 0 in 0 W/m2
22:19 41.5 °F 40.3 °F 30.1 in NNW 3.8 mph 6 mph 95% 0 in 0 W/m2
22:24 41.4 °F 39.9 °F 30.1 in NNW 3.1 mph 6 mph 95% 0 in 0 W/m2
22:29 41.4 °F 39.9 °F 30.1 in NNW 4.5 mph 6 mph 95% 0 in 0 W/m2
22:34 41.2 °F 39.9 °F 30.1 in NW 3.1 mph 6 mph 95% 0 in 0 W/m2
22:39 41.2 °F 39.9 °F 30.1 in NW 3.1 mph 6 mph 95% 0 in 0 W/m2
22:44 41 °F 39.7 °F 30.1 in NW 5.4 mph 6.9 mph 95% 0 in 0 W/m2
22:49 41 °F 39.7 °F 30.1 in NW 4.5 mph 6.9 mph 95% 0 in 0 W/m2
22:54 40.8 °F 39.7 °F 30.1 in NW 3.8 mph 6.9 mph 96% 0 in 0 W/m2
22:59 40.6 °F 39.6 °F 30.1 in NW 4.5 mph 6 mph 96% 0 in 0 W/m2
23:04 40.6 °F 39.6 °F 30.1 in NNW 3.8 mph 6 mph 96% 0 in 0 W/m2
23:09 40.6 °F 39.6 °F 30 in NNW 3.8 mph 6.9 mph 96% 0 in 0 W/m2
23:14 40.8 °F 39.7 °F 30.1 in NW 3.8 mph 6.9 mph 96% 0 in 0 W/m2
23:19 40.8 °F 39.7 °F 30 in NNW 3.1 mph 6 mph 96% 0 in 0 W/m2
23:24 40.8 °F 39.7 °F 30 in NNW 3.8 mph 5.4 mph 96% 0 in 0 W/m2
23:29 40.6 °F 39.6 °F 30 in NNW 5.4 mph 8.3 mph 96% 0 in 0 W/m2
23:35 40.6 °F 39.6 °F 30 in NNW 4.5 mph 8.3 mph 96% 0 in 0 W/m2
23:40 40.5 °F 39.4 °F 30 in NNW 3.8 mph 7.6 mph 96% 0 in 0 W/m2
23:46 40.5 °F 39.4 °F 30 in NNW 4.5 mph 6.9 mph 96% 0 in 0 W/m2
23:51 40.1 °F 39 °F 30 in NNW 3.1 mph 6.9 mph 96% 0 in 0 W/m2
23:56 40.1 °F 39 °F 30 in NW 3.8 mph 6 mph 96% 0 in 0 W/m2
Northern Hawkes Bay. New Zealand Historic Data
Compliments of Weather Underground - 2.25 mb